createdAt,value
2018-01-15T00:02:00.388Z,11.30
2018-01-15T00:04:27.945Z,9.43
2018-01-15T00:06:55.525Z,9.75
2018-01-15T00:09:23.077Z,10.05
2018-01-15T00:11:50.610Z,12.45
2018-01-15T00:14:18.215Z,13.25
2018-01-15T00:16:46.539Z,10.05
2018-01-15T00:19:14.087Z,10.85
2018-01-15T00:21:42.429Z,16.98
2018-01-15T00:24:09.995Z,11.25
2018-01-15T00:26:37.545Z,13.65
2018-01-15T00:29:05.143Z,12.07
2018-01-15T00:31:33.465Z,14.57
2018-01-15T00:34:01.009Z,12.15
2018-01-15T00:36:28.593Z,10.18
2018-01-15T00:38:56.140Z,14.23
2018-01-15T00:41:23.690Z,11.43
2018-01-15T00:43:51.253Z,10.27
2018-01-15T00:46:18.831Z,12.65
2018-01-15T00:48:46.410Z,13.23
2018-01-15T00:51:13.975Z,13.05
2018-01-15T00:53:41.524Z,16.52
2018-01-15T00:56:09.110Z,14.13
2018-01-15T00:58:37.437Z,15.75
2018-01-15T01:01:04.974Z,12.82
2018-01-15T01:03:32.527Z,12.88
2018-01-15T01:06:00.077Z,15.30
2018-01-15T01:08:27.663Z,14.65
2018-01-15T01:10:55.208Z,13.68
2018-01-15T01:13:22.746Z,15.50
2018-01-15T01:15:51.090Z,14.60
2018-01-15T01:18:18.655Z,13.35
2018-01-15T01:20:46.197Z,12.43
2018-01-15T01:23:13.778Z,13.48
2018-01-15T01:25:41.330Z,11.10
2018-01-15T01:28:08.881Z,12.65
2018-01-15T01:30:36.438Z,14.98
2018-01-15T01:33:03.992Z,12.52
2018-01-15T01:35:31.568Z,14.85
2018-01-15T01:37:59.135Z,9.80
2018-01-15T01:40:26.697Z,13.93
2018-01-15T01:42:54.266Z,25.10
2018-01-15T01:45:22.583Z,18.73
2018-01-15T01:47:50.126Z,12.15
2018-01-15T01:50:17.694Z,13.52
2018-01-15T01:52:45.234Z,14.07
2018-01-15T01:55:13.539Z,13.20
2018-01-15T01:57:41.109Z,15.50
2018-01-15T02:00:08.679Z,15.27
2018-01-15T02:02:36.280Z,14.13
2018-01-15T02:05:04.605Z,13.57
2018-01-15T02:07:32.266Z,14.98
2018-01-15T02:09:59.820Z,13.23
2018-01-15T02:12:27.377Z,13.82
2018-01-15T02:14:54.959Z,17.55
2018-01-15T02:17:22.507Z,16.62
2018-01-15T02:19:50.075Z,14.77
2018-01-15T02:22:17.643Z,18.27
2018-01-15T02:24:45.212Z,16.17
2018-01-15T02:27:12.779Z,18.08
2018-01-15T02:29:40.341Z,15.52
2018-01-15T02:32:07.909Z,14.93
2018-01-15T02:34:35.455Z,13.62
2018-01-15T02:37:03.029Z,14.75
2018-01-15T02:39:31.347Z,14.95
2018-01-15T02:41:58.913Z,14.52
2018-01-15T02:44:26.452Z,14.73
2018-01-15T02:46:54.002Z,14.35
2018-01-15T02:49:22.359Z,15.77
2018-01-15T02:51:50.700Z,17.60
2018-01-15T02:54:18.252Z,14.93
2018-01-15T02:56:45.815Z,18.25
2018-01-15T02:59:13.373Z,19.15
2018-01-15T03:01:40.954Z,15.57
2018-01-15T03:04:08.518Z,13.02
2018-01-15T03:06:36.069Z,15.93
2018-01-15T03:09:03.650Z,13.82
2018-01-15T03:11:31.187Z,14.87
2018-01-15T03:13:58.749Z,15.13
2018-01-15T03:16:26.326Z,15.07
2018-01-15T03:18:53.884Z,13.13
2018-01-15T03:21:21.440Z,14.18
2018-01-15T03:23:49.007Z,19.80
2018-01-15T03:26:16.590Z,14.93
2018-01-15T03:28:44.913Z,15.07
2018-01-15T03:31:12.490Z,15.18
2018-01-15T03:33:40.032Z,14.38
2018-01-15T03:36:07.593Z,20.58
2018-01-15T03:38:35.159Z,14.32
2018-01-15T03:41:02.713Z,14.80
2018-01-15T03:43:30.274Z,12.30
2018-01-15T03:45:57.848Z,12.00
2018-01-15T03:48:25.418Z,14.77
2018-01-15T03:50:52.990Z,12.85
2018-01-15T03:53:21.336Z,13.30
2018-01-15T03:55:48.875Z,11.05
2018-01-15T03:58:16.466Z,17.83
2018-01-15T04:00:44.020Z,13.95
2018-01-15T04:03:11.595Z,12.45
2018-01-15T04:05:39.182Z,12.52
2018-01-15T04:08:07.519Z,13.25
2018-01-15T04:10:35.058Z,14.18
2018-01-15T04:13:02.646Z,13.18
2018-01-15T04:15:30.205Z,13.88
2018-01-15T04:17:57.745Z,14.10
2018-01-15T04:20:25.335Z,12.77
2018-01-15T04:22:52.907Z,16.20
2018-01-15T04:25:21.219Z,12.73
2018-01-15T04:27:48.841Z,16.73
2018-01-15T04:30:17.161Z,12.98
2018-01-15T04:32:44.717Z,13.75
2018-01-15T04:35:12.300Z,13.43
2018-01-15T04:37:39.848Z,17.42
2018-01-15T04:40:07.422Z,15.05
2018-01-15T04:42:35.019Z,15.35
2018-01-15T04:45:03.323Z,13.55
2018-01-15T04:47:30.877Z,15.18
2018-01-15T04:49:58.449Z,12.95
2018-01-15T04:52:25.986Z,13.13
2018-01-15T04:54:54.356Z,14.98
2018-01-15T04:57:22.666Z,12.25
2018-01-15T04:59:50.226Z,9.63
2018-01-15T05:02:17.789Z,12.55
2018-01-15T05:04:45.326Z,14.25
2018-01-15T05:07:13.669Z,13.48
2018-01-15T05:09:41.234Z,13.73
2018-01-15T05:12:08.774Z,10.68
2018-01-15T05:14:36.336Z,21.10
2018-01-15T05:17:03.893Z,12.63
2018-01-15T05:19:31.472Z,13.75
2018-01-15T05:21:59.024Z,15.00
2018-01-15T05:24:26.571Z,16.20
2018-01-15T05:26:54.150Z,15.75
2018-01-15T05:29:21.691Z,11.40
2018-01-15T05:31:49.282Z,13.82
2018-01-15T05:34:17.586Z,11.75
2018-01-15T05:36:45.142Z,11.63
2018-01-15T05:39:12.725Z,13.77
2018-01-15T05:41:40.266Z,12.27
2018-01-15T05:44:07.807Z,11.60
2018-01-15T05:46:36.137Z,12.20
2018-01-15T05:49:03.701Z,11.98
2018-01-15T05:51:31.282Z,14.30
2018-01-15T05:53:58.827Z,13.52
2018-01-15T05:56:26.371Z,18.15
2018-01-15T05:58:53.950Z,14.13
2018-01-15T06:01:21.514Z,12.82
2018-01-15T06:03:49.101Z,16.95
2018-01-15T06:06:17.421Z,13.88
2018-01-15T06:08:44.991Z,11.57
2018-01-15T06:11:12.569Z,16.02
2018-01-15T06:13:40.131Z,15.80
2018-01-15T06:16:07.685Z,14.27
2018-01-15T06:18:35.257Z,16.77
2018-01-15T06:21:03.594Z,12.10
2018-01-15T06:23:31.175Z,13.18
2018-01-15T06:25:58.739Z,14.23
2018-01-15T06:28:26.283Z,13.70
2018-01-15T06:30:53.865Z,12.00
2018-01-15T06:33:21.421Z,16.37
2018-01-15T06:35:50.140Z,15.00
2018-01-15T06:38:18.493Z,12.45
2018-01-15T06:40:46.050Z,13.65
2018-01-15T06:43:13.594Z,12.60
2018-01-15T06:45:41.188Z,14.18
2018-01-15T06:48:09.509Z,16.37
2018-01-15T06:50:37.069Z,15.25
2018-01-15T06:53:04.640Z,15.15
2018-01-15T06:55:32.187Z,11.75
2018-01-15T06:57:59.765Z,13.38
2018-01-15T07:00:27.330Z,13.25
2018-01-15T07:02:54.879Z,12.10
2018-01-15T07:05:22.483Z,14.63
2018-01-15T07:07:50.818Z,16.77
2018-01-15T07:10:18.415Z,15.48
2018-01-15T07:12:46.742Z,13.02
2018-01-15T07:15:14.323Z,11.98
2018-01-15T07:17:41.924Z,11.80
2018-01-15T07:20:10.249Z,14.30
2018-01-15T07:22:37.801Z,12.13
2018-01-15T07:25:05.381Z,15.85
2018-01-15T07:27:32.923Z,15.90
2018-01-15T07:30:00.509Z,11.80
2018-01-15T07:32:28.079Z,15.60
2018-01-15T07:34:55.642Z,13.25
2018-01-15T07:37:23.209Z,12.77
2018-01-15T07:39:51.524Z,13.48
2018-01-15T07:42:19.098Z,13.60
2018-01-15T07:44:46.638Z,15.13
2018-01-15T07:47:14.187Z,16.60
2018-01-15T07:49:41.746Z,15.25
2018-01-15T07:52:09.310Z,17.30
2018-01-15T07:54:36.908Z,14.35
2018-01-15T07:57:04.449Z,14.50
2018-01-15T07:59:32.002Z,16.62
2018-01-15T08:01:59.581Z,17.25
2018-01-15T08:04:27.137Z,16.50
2018-01-15T08:06:54.679Z,13.60
2018-01-15T08:09:22.248Z,18.60
2018-01-15T08:11:49.829Z,19.42
2018-01-15T08:14:17.399Z,22.83
2018-01-15T08:16:44.975Z,17.37
2018-01-15T08:19:13.292Z,15.57
2018-01-15T08:21:40.883Z,16.30
2018-01-15T08:24:08.445Z,30.37
2018-01-15T08:26:36.005Z,27.70
2018-01-15T08:29:03.566Z,19.92
2018-01-15T08:31:31.107Z,17.48
2018-01-15T08:33:58.679Z,18.98
2018-01-15T08:36:26.223Z,30.33
2018-01-15T08:38:53.762Z,21.50
2018-01-15T08:41:21.348Z,19.30
2018-01-15T08:43:48.941Z,14.73
2018-01-15T08:46:16.523Z,14.77
2018-01-15T08:48:44.826Z,17.92
2018-01-15T08:51:12.390Z,14.95
2018-01-15T08:53:39.969Z,14.98
2018-01-15T08:56:07.525Z,15.93
2018-01-15T08:58:35.058Z,14.95
2018-01-15T09:01:02.666Z,16.02
2018-01-15T09:03:30.211Z,11.68
2018-01-15T09:05:57.766Z,12.27
2018-01-15T09:08:25.347Z,11.75
2018-01-15T09:10:52.912Z,12.70
2018-01-15T09:13:20.494Z,14.60
2018-01-15T09:15:48.827Z,12.63
2018-01-15T09:18:16.395Z,15.48
2018-01-15T09:20:43.964Z,11.68
2018-01-15T09:23:11.526Z,15.07
2018-01-15T09:25:39.067Z,14.10
2018-01-15T09:28:06.640Z,13.82
2018-01-15T09:30:34.211Z,17.25
2018-01-15T09:33:01.751Z,19.92
2018-01-15T09:35:29.321Z,15.15
2018-01-15T09:37:56.863Z,19.12
2018-01-15T09:40:24.455Z,11.95
2018-01-15T09:42:52.009Z,24.45
2018-01-15T09:45:19.574Z,18.67
2018-01-15T09:47:47.146Z,14.27
2018-01-15T09:50:15.473Z,57.22
2018-01-15T09:52:43.043Z,24.75
2018-01-15T09:55:10.585Z,22.00
2018-01-15T09:57:38.131Z,21.80
2018-01-15T10:00:05.705Z,16.98
2018-01-15T10:02:33.265Z,11.33
2018-01-15T10:05:00.838Z,19.23
2018-01-15T10:07:28.383Z,17.45
2018-01-15T10:09:55.927Z,12.13
2018-01-15T10:12:23.523Z,9.82
2018-01-15T10:14:51.089Z,13.77
2018-01-15T10:17:18.635Z,17.25
2018-01-15T10:19:46.214Z,12.10
2018-01-15T10:22:13.777Z,13.15
2018-01-15T10:24:41.375Z,12.13
2018-01-15T10:27:08.937Z,17.85
2018-01-15T10:29:36.513Z,16.08
2018-01-15T10:32:04.071Z,13.18
2018-01-15T10:34:31.620Z,12.32
2018-01-15T10:36:59.186Z,13.27
2018-01-15T10:39:26.789Z,11.40
2018-01-15T10:41:54.323Z,13.88
2018-01-15T10:44:21.896Z,10.80
2018-01-15T10:46:49.453Z,14.52
2018-01-15T10:49:17.033Z,15.07
2018-01-15T10:51:44.587Z,16.20
2018-01-15T10:54:12.168Z,13.80
2018-01-15T10:56:40.537Z,12.93
2018-01-15T10:59:08.085Z,14.27
2018-01-15T11:01:35.641Z,12.87
2018-01-15T11:04:03.232Z,13.10
2018-01-15T11:06:31.603Z,17.03
2018-01-15T11:08:59.159Z,9.00
2018-01-15T11:11:27.485Z,22.57
2018-01-15T11:13:55.057Z,11.30
2018-01-15T11:16:22.639Z,9.03
2018-01-15T11:18:50.201Z,12.23
2018-01-15T11:21:17.756Z,16.27
2018-01-15T11:23:45.333Z,8.77
2018-01-15T11:26:13.637Z,8.13
2018-01-15T11:28:41.206Z,10.73
2018-01-15T11:31:08.814Z,11.33
2018-01-15T11:33:36.373Z,11.63
2018-01-15T11:36:03.937Z,11.73
2018-01-15T11:38:31.513Z,8.70
2018-01-15T11:40:59.842Z,9.60
2018-01-15T11:43:27.400Z,5.83
2018-01-15T11:45:54.987Z,11.07
2018-01-15T11:48:22.541Z,7.97
2018-01-15T11:50:50.119Z,6.00
2018-01-15T11:53:17.659Z,7.00
2018-01-15T11:55:45.221Z,10.53
2018-01-15T11:58:12.783Z,5.20
2018-01-15T12:00:40.341Z,5.50
2018-01-15T12:03:07.886Z,6.17
2018-01-15T12:05:35.465Z,5.20
2018-01-15T12:08:03.023Z,6.53
2018-01-15T12:10:30.577Z,4.40
2018-01-15T12:12:58.134Z,6.10
2018-01-15T12:15:25.690Z,8.13
2018-01-15T12:17:53.261Z,5.80
2018-01-15T12:20:21.639Z,7.57
2018-01-15T12:22:49.220Z,35.10
2018-01-15T12:25:17.563Z,6.07
2018-01-15T12:27:45.119Z,7.93
2018-01-15T12:30:12.692Z,9.50
2018-01-15T12:32:40.287Z,10.23
2018-01-15T12:35:08.598Z,7.20
2018-01-15T12:37:37.039Z,6.63
2018-01-15T12:40:04.618Z,6.67
2018-01-15T12:42:32.177Z,5.63
2018-01-15T12:44:59.747Z,6.20
2018-01-15T12:47:27.325Z,6.37
2018-01-15T12:49:54.894Z,6.77
2018-01-15T12:52:22.442Z,6.37
2018-01-15T12:54:50.046Z,8.00
2018-01-15T12:57:17.600Z,8.80
2018-01-15T12:59:45.916Z,5.30
2018-01-15T13:02:13.494Z,4.17
2018-01-15T13:04:41.054Z,4.20
2018-01-15T13:07:20.622Z,4.43
2018-01-15T13:09:48.182Z,10.00
2018-01-15T13:12:15.752Z,2.43
2018-01-15T13:14:43.338Z,4.30
2018-01-15T13:17:11.676Z,3.60
2018-01-15T13:19:39.235Z,2.60
2018-01-15T13:22:06.813Z,4.67
2018-01-15T13:24:34.379Z,9.27
2018-01-15T13:27:01.969Z,3.93
2018-01-15T13:29:29.544Z,6.80
2018-01-15T13:31:57.083Z,3.47
2018-01-15T13:34:24.659Z,4.30
2018-01-15T13:36:52.199Z,4.83
2018-01-15T13:39:20.533Z,5.73
2018-01-15T13:41:48.113Z,4.47
2018-01-15T13:44:15.691Z,1.70
2018-01-15T13:46:44.028Z,2.73
2018-01-15T13:49:11.591Z,1.70
2018-01-15T13:51:39.154Z,2.23
2018-01-15T13:54:06.738Z,2.53
2018-01-15T13:56:35.076Z,4.20
2018-01-15T13:59:02.625Z,5.73
2018-01-15T14:01:30.220Z,2.77
2018-01-15T14:03:57.760Z,14.27
2018-01-15T14:06:25.304Z,1.95
2018-01-15T14:08:52.881Z,1.35
2018-01-15T14:11:20.453Z,2.12
2018-01-15T14:13:48.783Z,3.75
2018-01-15T14:16:16.345Z,3.33
2018-01-15T14:18:43.917Z,2.22
2018-01-15T14:21:11.506Z,2.03
2018-01-15T14:23:39.054Z,4.05
2018-01-15T14:26:06.619Z,6.55
2018-01-15T14:28:34.199Z,2.10
2018-01-15T14:31:01.746Z,5.75
2018-01-15T14:33:29.307Z,3.33
2018-01-15T14:35:57.678Z,3.55
2018-01-15T14:38:25.215Z,5.78
2018-01-15T14:40:52.802Z,2.92
2018-01-15T14:43:20.374Z,1.75
2018-01-15T14:45:47.940Z,2.37
2018-01-15T14:48:16.275Z,3.08
2018-01-15T14:50:43.831Z,3.33
2018-01-15T14:53:11.413Z,5.12
2018-01-15T14:55:38.965Z,1.77
2018-01-15T14:58:06.519Z,2.15
2018-01-15T15:00:34.076Z,3.97
2018-01-15T15:03:01.672Z,4.45
2018-01-15T15:05:29.217Z,4.28
2018-01-15T15:07:56.808Z,5.25
2018-01-15T15:10:25.143Z,6.37
2018-01-15T15:12:52.684Z,2.97
2018-01-15T15:15:20.269Z,4.68
2018-01-15T15:17:47.808Z,4.25
2018-01-15T15:20:15.342Z,4.57
2018-01-15T15:22:42.890Z,3.05
2018-01-15T15:25:11.190Z,3.03
2018-01-15T15:27:38.757Z,12.75
2018-01-15T15:30:06.301Z,4.43
2018-01-15T15:32:33.865Z,4.35
2018-01-15T15:35:01.450Z,5.12
2018-01-15T15:37:29.020Z,10.38
2018-01-15T15:39:56.587Z,6.45
2018-01-15T15:42:24.157Z,11.40
2018-01-15T15:44:51.690Z,5.68
2018-01-15T15:47:19.253Z,14.10
2018-01-15T15:49:46.805Z,16.35
2018-01-15T15:52:14.348Z,19.67
2018-01-15T15:54:41.907Z,19.27
2018-01-15T15:57:09.461Z,12.73
2018-01-15T15:59:37.028Z,19.40
2018-01-15T16:02:04.592Z,16.27
2018-01-15T16:04:32.137Z,12.23
2018-01-15T16:06:59.729Z,7.20
2018-01-15T16:09:27.314Z,10.90
2018-01-15T16:11:54.864Z,10.52
2018-01-15T16:14:22.431Z,10.32
2018-01-15T16:16:49.996Z,15.77
2018-01-15T16:19:18.307Z,10.52
2018-01-15T16:21:57.857Z,21.90
2018-01-15T16:24:25.395Z,13.85
2018-01-15T16:26:53.723Z,14.93
2018-01-15T16:29:21.292Z,14.65
2018-01-15T16:31:48.845Z,18.25
2018-01-15T16:34:16.401Z,16.77
2018-01-15T16:36:43.982Z,14.68
2018-01-15T16:39:11.519Z,14.65
2018-01-15T16:41:39.097Z,21.23
2018-01-15T16:44:06.653Z,17.67
2018-01-15T16:46:34.195Z,12.35
2018-01-15T16:49:01.747Z,19.17
2018-01-15T16:51:29.296Z,12.70
2018-01-15T16:53:56.862Z,11.30
2018-01-15T16:56:24.417Z,10.45
2018-01-15T16:58:51.986Z,10.77
2018-01-15T17:01:19.545Z,10.45
2018-01-15T17:03:47.097Z,7.80
2018-01-15T17:06:14.667Z,6.37
2018-01-15T17:08:42.213Z,4.60
2018-01-15T17:11:09.770Z,8.60
2018-01-15T17:13:37.328Z,5.65
2018-01-15T17:16:04.892Z,5.43
2018-01-15T17:18:32.437Z,3.42
2018-01-15T17:21:00.009Z,10.63
2018-01-15T17:23:27.574Z,9.70
2018-01-15T17:25:55.157Z,26.40
2018-01-15T17:28:22.724Z,48.75
2018-01-15T17:30:50.277Z,25.98
2018-01-15T17:33:17.848Z,10.18
2018-01-15T17:35:45.406Z,6.75
2018-01-15T17:38:12.942Z,6.20
2018-01-15T17:40:40.510Z,5.53
2018-01-15T17:43:08.073Z,8.15
2018-01-15T17:45:35.646Z,6.95
2018-01-15T17:48:03.197Z,7.57
2018-01-15T17:50:30.741Z,8.23
2018-01-15T17:52:58.304Z,5.90
2018-01-15T17:55:25.871Z,5.80
2018-01-15T17:57:53.426Z,9.02
2018-01-15T18:00:20.988Z,9.07
2018-01-15T18:02:48.577Z,13.40
2018-01-15T18:05:16.118Z,7.90
2018-01-15T18:07:44.888Z,5.80
2018-01-15T18:10:12.447Z,7.80
2018-01-15T18:12:40.007Z,5.40
2018-01-15T18:15:07.575Z,6.05
2018-01-15T18:17:35.144Z,8.63
2018-01-15T18:20:02.701Z,6.82
2018-01-15T18:22:30.258Z,18.35
2018-01-15T18:24:57.826Z,7.07
2018-01-15T18:27:25.369Z,4.10
2018-01-15T18:29:52.937Z,5.60
2018-01-15T18:32:20.503Z,8.05
2018-01-15T18:34:48.067Z,7.30
2018-01-15T18:37:15.655Z,8.10
2018-01-15T18:39:43.218Z,5.37
2018-01-15T18:42:10.773Z,9.07
2018-01-15T18:44:39.125Z,17.50
2018-01-15T18:47:06.687Z,10.80
2018-01-15T18:49:34.282Z,10.82
2018-01-15T18:52:01.848Z,13.90
2018-01-15T18:54:29.394Z,48.42
2018-01-15T18:56:56.964Z,41.70
2018-01-15T18:59:24.527Z,23.17
2018-01-15T19:01:52.125Z,28.48
2018-01-15T19:04:20.176Z,28.15
2018-01-15T19:06:48.209Z,48.53
2018-01-15T19:09:16.556Z,51.08
2018-01-15T19:11:44.103Z,26.95
2018-01-15T19:14:11.652Z,21.95
2018-01-15T19:16:39.216Z,21.75
2018-01-15T19:19:06.764Z,14.30
2018-01-15T19:21:34.333Z,13.95
2018-01-15T19:24:01.885Z,25.83
2018-01-15T19:26:29.445Z,36.70
2018-01-15T19:28:57.006Z,25.25
2018-01-15T19:31:24.680Z,14.55
2018-01-15T19:33:52.243Z,10.40
2018-01-15T19:36:25.432Z,14.52
2018-01-15T19:38:53.009Z,8.70
2018-01-15T19:41:21.040Z,5.35
2018-01-15T19:44:03.399Z,6.07
2018-01-15T19:46:37.444Z,5.72
2018-01-15T19:49:10.791Z,3.95
2018-01-15T19:51:45.451Z,3.85
2018-01-15T19:54:18.652Z,3.33
2018-01-15T19:56:51.836Z,5.30
2018-01-15T19:59:25.160Z,11.52
2018-01-15T20:01:58.329Z,5.45
2018-01-15T20:04:31.521Z,4.07
2018-01-15T20:07:04.752Z,4.07
2018-01-15T20:09:38.067Z,4.75
2018-01-15T20:12:06.055Z,4.78
2018-01-15T20:14:34.354Z,5.37
2018-01-15T20:17:01.931Z,3.90
2018-01-15T20:19:29.479Z,4.18
2018-01-15T20:21:57.029Z,8.48
2018-01-15T20:24:24.587Z,4.75
2018-01-15T20:26:52.135Z,4.60
2018-01-15T20:29:20.459Z,6.45
2018-01-15T20:31:48.048Z,7.10
2018-01-15T20:34:16.091Z,6.93
2018-01-15T20:36:43.674Z,7.50
2018-01-15T20:39:11.271Z,5.93
2018-01-15T20:41:39.579Z,5.65
2018-01-15T20:44:07.163Z,7.50
2018-01-15T20:46:34.731Z,9.18
2018-01-15T20:49:02.277Z,8.23
2018-01-15T20:51:29.863Z,8.50
2018-01-15T20:53:58.294Z,14.05
2018-01-15T20:56:25.845Z,8.30
2018-01-15T20:58:53.515Z,8.32
2018-01-15T21:01:21.047Z,9.57
2018-01-15T21:03:48.582Z,6.75
2018-01-15T21:06:16.929Z,7.50
2018-01-15T21:08:44.471Z,7.43
2018-01-15T21:11:12.007Z,12.82
2018-01-15T21:13:39.587Z,9.30
2018-01-15T21:16:07.147Z,6.53
2018-01-15T21:18:34.731Z,6.00
2018-01-15T21:21:02.266Z,10.25
2018-01-15T21:23:29.802Z,10.82
2018-01-15T21:25:57.381Z,8.48
2018-01-15T21:28:24.923Z,5.18
2018-01-15T21:30:52.479Z,5.90
2018-01-15T21:33:20.015Z,5.37
2018-01-15T21:35:48.315Z,7.35
2018-01-15T21:38:15.903Z,3.20
2018-01-15T21:40:43.439Z,6.35
2018-01-15T21:43:10.989Z,8.85
2018-01-15T21:45:38.553Z,5.22
2018-01-15T21:48:06.086Z,5.78
2018-01-15T21:50:33.672Z,8.60
2018-01-15T21:53:01.224Z,10.27
2018-01-15T21:55:29.540Z,8.48
2018-01-15T21:57:57.122Z,5.97
2018-01-15T22:00:24.683Z,6.25
2018-01-15T22:02:52.247Z,7.68
2018-01-15T22:05:19.831Z,8.85
2018-01-15T22:07:48.146Z,9.80
2018-01-15T22:10:15.693Z,6.78
2018-01-15T22:12:43.263Z,7.22
2018-01-15T22:15:10.827Z,11.40
2018-01-15T22:17:38.401Z,6.60
2018-01-15T22:20:05.965Z,6.85
2018-01-15T22:22:33.526Z,6.18
2018-01-15T22:25:01.100Z,4.18
2018-01-15T22:27:28.649Z,2.70
2018-01-15T22:29:56.206Z,4.93
2018-01-15T22:32:23.791Z,2.35
2018-01-15T22:34:51.341Z,6.45
2018-01-15T22:37:18.888Z,5.50
2018-01-15T22:39:46.460Z,2.53
2018-01-15T22:42:14.009Z,6.05
2018-01-15T22:44:41.557Z,2.67
2018-01-15T22:47:09.119Z,9.68
2018-01-15T22:49:36.670Z,5.80
2018-01-15T22:52:04.231Z,2.37
2018-01-15T22:54:31.792Z,1.70
2018-01-15T22:56:59.345Z,2.08
2018-01-15T22:59:26.912Z,1.48
2018-01-15T23:01:54.461Z,1.98
2018-01-15T23:04:22.017Z,2.87
2018-01-15T23:06:49.585Z,3.17
2018-01-15T23:09:17.147Z,5.65
2018-01-15T23:11:44.730Z,2.42
2018-01-15T23:14:12.276Z,1.67
2018-01-15T23:16:39.829Z,1.95
2018-01-15T23:19:07.409Z,2.35
2018-01-15T23:21:34.947Z,1.52
2018-01-15T23:24:02.547Z,6.62
2018-01-15T23:26:30.113Z,1.45
2018-01-15T23:28:58.428Z,1.70
2018-01-15T23:31:26.001Z,3.30
2018-01-15T23:33:53.591Z,1.83
2018-01-15T23:36:21.136Z,7.03
2018-01-15T23:38:48.707Z,1.67
2018-01-15T23:41:16.277Z,5.07
2018-01-15T23:43:44.583Z,1.10
2018-01-15T23:46:12.152Z,1.40
2018-01-15T23:48:39.748Z,1.52
2018-01-15T23:51:09.269Z,1.60
2018-01-15T23:53:40.156Z,2.05
2018-01-15T23:56:07.710Z,2.08
2018-01-15T23:58:35.271Z,2.85
